sensor_id;sensor_type;location;lat;lon;timestamp;P1;durP1;ratioP1;P2;durP2;ratioP2
68247;SDS011;55064;49.636;12.164;2023-12-07T00:00:09;20.43;;;8.90;;
68247;SDS011;55064;49.636;12.164;2023-12-07T00:02:35;22.17;;;9.40;;
68247;SDS011;55064;49.636;12.164;2023-12-07T00:05:00;22.83;;;9.40;;
68247;SDS011;55064;49.636;12.164;2023-12-07T00:07:26;25.33;;;9.70;;
68247;SDS011;55064;49.636;12.164;2023-12-07T00:09:51;22.57;;;9.47;;
68247;SDS011;55064;49.636;12.164;2023-12-07T00:12:16;22.70;;;9.63;;
68247;SDS011;55064;49.636;12.164;2023-12-07T00:14:42;23.45;;;9.85;;
68247;SDS011;55064;49.636;12.164;2023-12-07T00:17:07;23.93;;;9.63;;
68247;SDS011;55064;49.636;12.164;2023-12-07T00:19:33;26.60;;;10.17;;
68247;SDS011;55064;49.636;12.164;2023-12-07T00:21:58;22.63;;;9.00;;
68247;SDS011;55064;49.636;12.164;2023-12-07T00:24:23;22.50;;;9.63;;
68247;SDS011;55064;49.636;12.164;2023-12-07T00:26:49;27.40;;;10.20;;
68247;SDS011;55064;49.636;12.164;2023-12-07T00:29:14;23.77;;;9.67;;
68247;SDS011;55064;49.636;12.164;2023-12-07T00:31:40;23.90;;;9.47;;
68247;SDS011;55064;49.636;12.164;2023-12-07T00:34:05;24.52;;;9.80;;
68247;SDS011;55064;49.636;12.164;2023-12-07T00:36:31;22.93;;;9.17;;
68247;SDS011;55064;49.636;12.164;2023-12-07T00:38:56;26.73;;;9.43;;
68247;SDS011;55064;49.636;12.164;2023-12-07T00:41:21;28.30;;;10.73;;
68247;SDS011;55064;49.636;12.164;2023-12-07T00:43:47;27.67;;;10.03;;
68247;SDS011;55064;49.636;12.164;2023-12-07T00:46:13;22.08;;;9.25;;
68247;SDS011;55064;49.636;12.164;2023-12-07T00:48:38;27.00;;;10.67;;
68247;SDS011;55064;49.636;12.164;2023-12-07T00:51:03;25.77;;;9.27;;
68247;SDS011;55064;49.636;12.164;2023-12-07T00:53:31;23.90;;;9.68;;
68247;SDS011;55064;49.636;12.164;2023-12-07T00:55:56;23.48;;;9.18;;
68247;SDS011;55064;49.636;12.164;2023-12-07T01:01:24;25.52;;;9.82;;
68247;SDS011;55064;49.636;12.164;2023-12-07T01:03:49;24.27;;;9.63;;
68247;SDS011;55064;49.636;12.164;2023-12-07T01:06:15;24.20;;;9.93;;
68247;SDS011;55064;49.636;12.164;2023-12-07T01:08:41;23.27;;;9.07;;
68247;SDS011;55064;49.636;12.164;2023-12-07T01:11:08;24.17;;;9.53;;
68247;SDS011;55064;49.636;12.164;2023-12-07T01:13:34;24.27;;;10.00;;
68247;SDS011;55064;49.636;12.164;2023-12-07T01:16:00;23.25;;;9.63;;
68247;SDS011;55064;49.636;12.164;2023-12-07T01:18:26;26.87;;;10.23;;
68247;SDS011;55064;49.636;12.164;2023-12-07T01:20:51;26.65;;;10.48;;
68247;SDS011;55064;49.636;12.164;2023-12-07T01:23:17;27.63;;;10.33;;
68247;SDS011;55064;49.636;12.164;2023-12-07T01:25:42;24.77;;;9.60;;
68247;SDS011;55064;49.636;12.164;2023-12-07T01:28:08;26.10;;;9.17;;
68247;SDS011;55064;49.636;12.164;2023-12-07T01:30:34;23.65;;;9.80;;
68247;SDS011;55064;49.636;12.164;2023-12-07T01:33:01;24.08;;;9.52;;
68247;SDS011;55064;49.636;12.164;2023-12-07T01:35:26;25.50;;;10.10;;
68247;SDS011;55064;49.636;12.164;2023-12-07T01:37:52;25.13;;;9.27;;
68247;SDS011;55064;49.636;12.164;2023-12-07T01:40:17;24.57;;;9.80;;
68247;SDS011;55064;49.636;12.164;2023-12-07T01:42:49;24.83;;;9.73;;
68247;SDS011;55064;49.636;12.164;2023-12-07T01:45:16;24.27;;;9.67;;
68247;SDS011;55064;49.636;12.164;2023-12-07T01:47:41;26.05;;;10.65;;
68247;SDS011;55064;49.636;12.164;2023-12-07T01:50:07;24.30;;;9.70;;
68247;SDS011;55064;49.636;12.164;2023-12-07T01:52:35;25.25;;;10.20;;
68247;SDS011;55064;49.636;12.164;2023-12-07T01:55:03;25.00;;;9.77;;
68247;SDS011;55064;49.636;12.164;2023-12-07T01:57:30;25.95;;;10.30;;
68247;SDS011;55064;49.636;12.164;2023-12-07T01:59:55;25.48;;;10.02;;
68247;SDS011;55064;49.636;12.164;2023-12-07T02:02:21;26.73;;;10.40;;
68247;SDS011;55064;49.636;12.164;2023-12-07T02:04:46;26.97;;;10.27;;
68247;SDS011;55064;49.636;12.164;2023-12-07T02:07:12;30.42;;;10.55;;
68247;SDS011;55064;49.636;12.164;2023-12-07T02:09:37;28.30;;;11.17;;
68247;SDS011;55064;49.636;12.164;2023-12-07T02:12:03;28.67;;;10.93;;
68247;SDS011;55064;49.636;12.164;2023-12-07T02:14:28;26.67;;;9.93;;
68247;SDS011;55064;49.636;12.164;2023-12-07T02:16:56;26.13;;;10.07;;
68247;SDS011;55064;49.636;12.164;2023-12-07T02:22:25;29.40;;;10.82;;
68247;SDS011;55064;49.636;12.164;2023-12-07T02:25:06;25.63;;;10.23;;
68247;SDS011;55064;49.636;12.164;2023-12-07T02:27:34;31.87;;;10.40;;
68247;SDS011;55064;49.636;12.164;2023-12-07T02:30:07;28.90;;;10.38;;
68247;SDS011;55064;49.636;12.164;2023-12-07T02:32:35;25.55;;;10.60;;
68247;SDS011;55064;49.636;12.164;2023-12-07T02:35:01;24.08;;;9.98;;
68247;SDS011;55064;49.636;12.164;2023-12-07T02:37:28;24.63;;;9.57;;
68247;SDS011;55064;49.636;12.164;2023-12-07T02:39:57;25.33;;;10.07;;
68247;SDS011;55064;49.636;12.164;2023-12-07T02:42:24;30.75;;;10.82;;
68247;SDS011;55064;49.636;12.164;2023-12-07T02:44:52;26.03;;;10.47;;
68247;SDS011;55064;49.636;12.164;2023-12-07T02:47:18;26.77;;;10.70;;
68247;SDS011;55064;49.636;12.164;2023-12-07T02:49:43;26.63;;;10.38;;
68247;SDS011;55064;49.636;12.164;2023-12-07T02:52:09;28.30;;;10.20;;
68247;SDS011;55064;49.636;12.164;2023-12-07T02:54:35;25.07;;;10.30;;
68247;SDS011;55064;49.636;12.164;2023-12-07T02:57:00;28.17;;;10.70;;
68247;SDS011;55064;49.636;12.164;2023-12-07T02:59:25;31.70;;;11.43;;
68247;SDS011;55064;49.636;12.164;2023-12-07T03:01:51;30.83;;;11.20;;
68247;SDS011;55064;49.636;12.164;2023-12-07T03:04:16;29.20;;;11.77;;
68247;SDS011;55064;49.636;12.164;2023-12-07T03:06:41;25.67;;;10.30;;
68247;SDS011;55064;49.636;12.164;2023-12-07T03:09:07;27.47;;;10.63;;
68247;SDS011;55064;49.636;12.164;2023-12-07T03:11:32;28.37;;;10.57;;
68247;SDS011;55064;49.636;12.164;2023-12-07T03:13:57;26.73;;;10.45;;
68247;SDS011;55064;49.636;12.164;2023-12-07T03:16:23;26.57;;;10.30;;
68247;SDS011;55064;49.636;12.164;2023-12-07T03:18:48;27.70;;;10.27;;
68247;SDS011;55064;49.636;12.164;2023-12-07T03:21:14;27.53;;;10.17;;
68247;SDS011;55064;49.636;12.164;2023-12-07T03:23:39;26.27;;;10.80;;
68247;SDS011;55064;49.636;12.164;2023-12-07T03:26:04;28.25;;;11.73;;
68247;SDS011;55064;49.636;12.164;2023-12-07T03:28:30;29.80;;;11.40;;
68247;SDS011;55064;49.636;12.164;2023-12-07T03:30:55;26.90;;;11.57;;
68247;SDS011;55064;49.636;12.164;2023-12-07T03:33:20;26.17;;;10.67;;
68247;SDS011;55064;49.636;12.164;2023-12-07T03:35:46;27.13;;;10.73;;
68247;SDS011;55064;49.636;12.164;2023-12-07T03:38:11;29.57;;;10.83;;
68247;SDS011;55064;49.636;12.164;2023-12-07T03:40:36;27.97;;;11.23;;
68247;SDS011;55064;49.636;12.164;2023-12-07T03:43:03;25.33;;;10.63;;
68247;SDS011;55064;49.636;12.164;2023-12-07T03:45:29;28.02;;;10.80;;
68247;SDS011;55064;49.636;12.164;2023-12-07T03:47:54;29.80;;;10.57;;
68247;SDS011;55064;49.636;12.164;2023-12-07T03:50:20;26.53;;;10.47;;
68247;SDS011;55064;49.636;12.164;2023-12-07T03:52:45;29.85;;;10.25;;
68247;SDS011;55064;49.636;12.164;2023-12-07T03:55:11;25.97;;;11.27;;
68247;SDS011;55064;49.636;12.164;2023-12-07T03:57:36;27.83;;;10.77;;
68247;SDS011;55064;49.636;12.164;2023-12-07T04:00:02;28.77;;;11.17;;
68247;SDS011;55064;49.636;12.164;2023-12-07T04:02:29;29.58;;;10.82;;
68247;SDS011;55064;49.636;12.164;2023-12-07T04:04:58;28.80;;;11.37;;
68247;SDS011;55064;49.636;12.164;2023-12-07T04:07:26;30.63;;;11.43;;
68247;SDS011;55064;49.636;12.164;2023-12-07T04:09:52;32.47;;;12.23;;
68247;SDS011;55064;49.636;12.164;2023-12-07T04:12:17;29.73;;;11.43;;
68247;SDS011;55064;49.636;12.164;2023-12-07T04:14:44;29.30;;;10.95;;
68247;SDS011;55064;49.636;12.164;2023-12-07T04:17:10;25.50;;;10.53;;
68247;SDS011;55064;49.636;12.164;2023-12-07T04:19:35;29.57;;;11.33;;
68247;SDS011;55064;49.636;12.164;2023-12-07T04:22:00;25.83;;;10.87;;
68247;SDS011;55064;49.636;12.164;2023-12-07T04:24:26;26.80;;;11.07;;
68247;SDS011;55064;49.636;12.164;2023-12-07T04:26:51;26.27;;;11.27;;
68247;SDS011;55064;49.636;12.164;2023-12-07T04:29:17;31.00;;;10.77;;
68247;SDS011;55064;49.636;12.164;2023-12-07T04:31:42;28.20;;;11.33;;
68247;SDS011;55064;49.636;12.164;2023-12-07T04:34:08;27.70;;;10.00;;
68247;SDS011;55064;49.636;12.164;2023-12-07T04:36:33;27.27;;;10.20;;
68247;SDS011;55064;49.636;12.164;2023-12-07T04:38:59;26.90;;;10.87;;
68247;SDS011;55064;49.636;12.164;2023-12-07T04:41:24;31.93;;;11.53;;
68247;SDS011;55064;49.636;12.164;2023-12-07T04:43:49;28.03;;;11.10;;
68247;SDS011;55064;49.636;12.164;2023-12-07T04:46:15;27.17;;;10.45;;
68247;SDS011;55064;49.636;12.164;2023-12-07T04:48:40;27.53;;;10.83;;
68247;SDS011;55064;49.636;12.164;2023-12-07T04:51:05;29.80;;;11.27;;
68247;SDS011;55064;49.636;12.164;2023-12-07T04:53:31;28.37;;;11.40;;
68247;SDS011;55064;49.636;12.164;2023-12-07T04:55:56;27.07;;;10.70;;
68247;SDS011;55064;49.636;12.164;2023-12-07T04:58:22;28.70;;;10.53;;
68247;SDS011;55064;49.636;12.164;2023-12-07T05:00:47;27.17;;;11.23;;
68247;SDS011;55064;49.636;12.164;2023-12-07T05:03:12;26.77;;;10.57;;
68247;SDS011;55064;49.636;12.164;2023-12-07T05:05:38;25.57;;;10.30;;
68247;SDS011;55064;49.636;12.164;2023-12-07T05:08:03;26.00;;;9.93;;
68247;SDS011;55064;49.636;12.164;2023-12-07T05:10:29;24.57;;;10.23;;
68247;SDS011;55064;49.636;12.164;2023-12-07T05:12:54;29.27;;;11.87;;
68247;SDS011;55064;49.636;12.164;2023-12-07T05:15:21;30.10;;;11.02;;
68247;SDS011;55064;49.636;12.164;2023-12-07T05:17:46;26.07;;;10.33;;
68247;SDS011;55064;49.636;12.164;2023-12-07T05:20:11;26.40;;;10.50;;
68247;SDS011;55064;49.636;12.164;2023-12-07T05:22:37;24.65;;;10.00;;
68247;SDS011;55064;49.636;12.164;2023-12-07T05:25:03;28.77;;;10.90;;
68247;SDS011;55064;49.636;12.164;2023-12-07T05:27:29;26.77;;;11.15;;
68247;SDS011;55064;49.636;12.164;2023-12-07T05:29:55;27.55;;;11.75;;
68247;SDS011;55064;49.636;12.164;2023-12-07T05:32:20;27.07;;;11.07;;
68247;SDS011;55064;49.636;12.164;2023-12-07T05:34:46;29.20;;;10.93;;
68247;SDS011;55064;49.636;12.164;2023-12-07T05:37:11;25.53;;;9.90;;
68247;SDS011;55064;49.636;12.164;2023-12-07T05:39:36;28.37;;;10.40;;
68247;SDS011;55064;49.636;12.164;2023-12-07T05:42:02;25.93;;;11.17;;
68247;SDS011;55064;49.636;12.164;2023-12-07T05:44:29;26.85;;;10.35;;
68247;SDS011;55064;49.636;12.164;2023-12-07T05:46:55;25.48;;;10.57;;
68247;SDS011;55064;49.636;12.164;2023-12-07T05:49:22;27.95;;;10.70;;
68247;SDS011;55064;49.636;12.164;2023-12-07T05:51:48;29.50;;;11.63;;
68247;SDS011;55064;49.636;12.164;2023-12-07T05:54:14;28.63;;;10.80;;
68247;SDS011;55064;49.636;12.164;2023-12-07T05:56:39;29.33;;;11.17;;
68247;SDS011;55064;49.636;12.164;2023-12-07T05:59:05;28.10;;;10.85;;
68247;SDS011;55064;49.636;12.164;2023-12-07T06:01:31;29.03;;;11.17;;
68247;SDS011;55064;49.636;12.164;2023-12-07T06:03:57;30.50;;;12.70;;
68247;SDS011;55064;49.636;12.164;2023-12-07T06:06:22;29.65;;;11.65;;
68247;SDS011;55064;49.636;12.164;2023-12-07T06:08:49;30.67;;;11.90;;
68247;SDS011;55064;49.636;12.164;2023-12-07T06:11:14;29.75;;;12.63;;
68247;SDS011;55064;49.636;12.164;2023-12-07T06:13:40;28.23;;;12.10;;
68247;SDS011;55064;49.636;12.164;2023-12-07T06:16:06;28.50;;;12.00;;
68247;SDS011;55064;49.636;12.164;2023-12-07T06:18:31;31.00;;;11.90;;
68247;SDS011;55064;49.636;12.164;2023-12-07T06:20:57;30.83;;;11.53;;
68247;SDS011;55064;49.636;12.164;2023-12-07T06:23:22;28.55;;;11.65;;
68247;SDS011;55064;49.636;12.164;2023-12-07T06:25:47;32.00;;;11.87;;
68247;SDS011;55064;49.636;12.164;2023-12-07T06:28:13;37.97;;;14.00;;
68247;SDS011;55064;49.636;12.164;2023-12-07T06:30:38;44.33;;;15.53;;
68247;SDS011;55064;49.636;12.164;2023-12-07T06:33:04;41.93;;;16.53;;
68247;SDS011;55064;49.636;12.164;2023-12-07T06:35:29;45.30;;;15.35;;
68247;SDS011;55064;49.636;12.164;2023-12-07T06:37:55;29.97;;;10.77;;
68247;SDS011;55064;49.636;12.164;2023-12-07T06:40:21;27.58;;;10.52;;
68247;SDS011;55064;49.636;12.164;2023-12-07T06:42:46;29.93;;;11.30;;
68247;SDS011;55064;49.636;12.164;2023-12-07T06:45:13;25.65;;;9.77;;
68247;SDS011;55064;49.636;12.164;2023-12-07T06:47:42;26.77;;;10.18;;
68247;SDS011;55064;49.636;12.164;2023-12-07T06:50:08;31.48;;;11.65;;
68247;SDS011;55064;49.636;12.164;2023-12-07T06:52:35;32.10;;;12.77;;
68247;SDS011;55064;49.636;12.164;2023-12-07T06:55:00;35.10;;;12.70;;
68247;SDS011;55064;49.636;12.164;2023-12-07T06:57:26;35.60;;;13.10;;
68247;SDS011;55064;49.636;12.164;2023-12-07T06:59:52;33.97;;;12.97;;
68247;SDS011;55064;49.636;12.164;2023-12-07T07:02:17;38.25;;;13.57;;
68247;SDS011;55064;49.636;12.164;2023-12-07T07:04:43;37.60;;;15.47;;
68247;SDS011;55064;49.636;12.164;2023-12-07T07:07:09;38.97;;;15.85;;
68247;SDS011;55064;49.636;12.164;2023-12-07T07:09:34;42.60;;;15.50;;
68247;SDS011;55064;49.636;12.164;2023-12-07T07:12:00;39.47;;;15.20;;
68247;SDS011;55064;49.636;12.164;2023-12-07T07:14:25;36.30;;;14.63;;
68247;SDS011;55064;49.636;12.164;2023-12-07T07:16:50;40.53;;;16.17;;
68247;SDS011;55064;49.636;12.164;2023-12-07T07:19:17;35.25;;;14.27;;
68247;SDS011;55064;49.636;12.164;2023-12-07T07:21:42;32.85;;;14.60;;
68247;SDS011;55064;49.636;12.164;2023-12-07T07:24:08;31.30;;;12.55;;
68247;SDS011;55064;49.636;12.164;2023-12-07T07:26:34;30.73;;;11.23;;
68247;SDS011;55064;49.636;12.164;2023-12-07T07:28:59;32.90;;;13.00;;
68247;SDS011;55064;49.636;12.164;2023-12-07T07:31:25;29.47;;;12.13;;
68247;SDS011;55064;49.636;12.164;2023-12-07T07:33:50;41.03;;;17.90;;
68247;SDS011;55064;49.636;12.164;2023-12-07T07:36:15;40.20;;;17.40;;
68247;SDS011;55064;49.636;12.164;2023-12-07T07:38:41;35.70;;;15.23;;
68247;SDS011;55064;49.636;12.164;2023-12-07T07:41:07;39.08;;;18.20;;
68247;SDS011;55064;49.636;12.164;2023-12-07T07:43:33;36.40;;;15.50;;
68247;SDS011;55064;49.636;12.164;2023-12-07T07:45:59;35.50;;;15.35;;
68247;SDS011;55064;49.636;12.164;2023-12-07T07:48:25;37.60;;;16.85;;
68247;SDS011;55064;49.636;12.164;2023-12-07T07:50:51;39.27;;;14.83;;
68247;SDS011;55064;49.636;12.164;2023-12-07T07:53:16;30.33;;;11.60;;
68247;SDS011;55064;49.636;12.164;2023-12-07T07:55:42;30.40;;;12.05;;
68247;SDS011;55064;49.636;12.164;2023-12-07T07:58:07;33.53;;;12.30;;
68247;SDS011;55064;49.636;12.164;2023-12-07T08:00:33;30.83;;;11.47;;
68247;SDS011;55064;49.636;12.164;2023-12-07T08:02:59;27.92;;;11.10;;
68247;SDS011;55064;49.636;12.164;2023-12-07T08:05:25;31.95;;;13.55;;
68247;SDS011;55064;49.636;12.164;2023-12-07T08:07:50;35.53;;;12.97;;
68247;SDS011;55064;49.636;12.164;2023-12-07T08:10:16;33.53;;;13.05;;
68247;SDS011;55064;49.636;12.164;2023-12-07T08:12:42;32.40;;;13.00;;
68247;SDS011;55064;49.636;12.164;2023-12-07T08:15:07;29.50;;;12.37;;
68247;SDS011;55064;49.636;12.164;2023-12-07T08:17:36;33.67;;;14.07;;
68247;SDS011;55064;49.636;12.164;2023-12-07T08:20:06;31.08;;;12.57;;
68247;SDS011;55064;49.636;12.164;2023-12-07T08:22:32;30.10;;;12.52;;
68247;SDS011;55064;49.636;12.164;2023-12-07T08:24:58;29.47;;;10.73;;
68247;SDS011;55064;49.636;12.164;2023-12-07T08:27:25;28.45;;;10.63;;
68247;SDS011;55064;49.636;12.164;2023-12-07T08:29:50;30.03;;;11.03;;
68247;SDS011;55064;49.636;12.164;2023-12-07T08:32:15;28.33;;;10.77;;
68247;SDS011;55064;49.636;12.164;2023-12-07T08:34:43;27.27;;;11.27;;
68247;SDS011;55064;49.636;12.164;2023-12-07T08:37:09;29.60;;;12.43;;
68247;SDS011;55064;49.636;12.164;2023-12-07T08:39:34;28.17;;;10.00;;
68247;SDS011;55064;49.636;12.164;2023-12-07T08:42:00;30.00;;;11.23;;
68247;SDS011;55064;49.636;12.164;2023-12-07T08:44:26;28.73;;;11.50;;
68247;SDS011;55064;49.636;12.164;2023-12-07T08:46:51;28.25;;;11.38;;
68247;SDS011;55064;49.636;12.164;2023-12-07T08:49:17;28.63;;;11.77;;
68247;SDS011;55064;49.636;12.164;2023-12-07T08:51:42;28.73;;;11.80;;
68247;SDS011;55064;49.636;12.164;2023-12-07T08:54:07;25.83;;;10.83;;
68247;SDS011;55064;49.636;12.164;2023-12-07T08:56:33;28.10;;;10.90;;
68247;SDS011;55064;49.636;12.164;2023-12-07T08:58:58;25.57;;;10.20;;
68247;SDS011;55064;49.636;12.164;2023-12-07T09:01:24;28.93;;;11.07;;
68247;SDS011;55064;49.636;12.164;2023-12-07T09:03:51;30.15;;;12.07;;
68247;SDS011;55064;49.636;12.164;2023-12-07T09:06:17;28.97;;;11.57;;
68247;SDS011;55064;49.636;12.164;2023-12-07T09:08:42;29.20;;;11.90;;
68247;SDS011;55064;49.636;12.164;2023-12-07T09:11:08;26.42;;;10.65;;
68247;SDS011;55064;49.636;12.164;2023-12-07T09:13:34;28.20;;;11.93;;
68247;SDS011;55064;49.636;12.164;2023-12-07T09:15:59;25.90;;;10.33;;
68247;SDS011;55064;49.636;12.164;2023-12-07T09:18:24;28.47;;;10.93;;
68247;SDS011;55064;49.636;12.164;2023-12-07T09:20:50;22.53;;;9.23;;
68247;SDS011;55064;49.636;12.164;2023-12-07T09:23:15;23.55;;;9.65;;
68247;SDS011;55064;49.636;12.164;2023-12-07T09:25:41;28.17;;;12.97;;
68247;SDS011;55064;49.636;12.164;2023-12-07T09:28:07;27.15;;;11.25;;
68247;SDS011;55064;49.636;12.164;2023-12-07T09:30:33;23.77;;;9.00;;
68247;SDS011;55064;49.636;12.164;2023-12-07T09:32:59;22.25;;;9.23;;
68247;SDS011;55064;49.636;12.164;2023-12-07T09:35:25;22.90;;;10.20;;
68247;SDS011;55064;49.636;12.164;2023-12-07T09:37:50;23.48;;;9.93;;
68247;SDS011;55064;49.636;12.164;2023-12-07T09:40:17;21.33;;;9.67;;
68247;SDS011;55064;49.636;12.164;2023-12-07T09:42:43;23.67;;;9.68;;
68247;SDS011;55064;49.636;12.164;2023-12-07T09:45:09;21.23;;;9.10;;
68247;SDS011;55064;49.636;12.164;2023-12-07T09:47:36;20.83;;;9.85;;
68247;SDS011;55064;49.636;12.164;2023-12-07T09:50:03;21.23;;;9.23;;
68247;SDS011;55064;49.636;12.164;2023-12-07T09:52:34;22.20;;;9.35;;
68247;SDS011;55064;49.636;12.164;2023-12-07T09:55:01;23.63;;;9.40;;
68247;SDS011;55064;49.636;12.164;2023-12-07T09:57:27;19.08;;;8.27;;
68247;SDS011;55064;49.636;12.164;2023-12-07T09:59:53;24.03;;;10.13;;
68247;SDS011;55064;49.636;12.164;2023-12-07T10:02:20;22.27;;;8.82;;
68247;SDS011;55064;49.636;12.164;2023-12-07T10:04:46;23.38;;;8.30;;
68247;SDS011;55064;49.636;12.164;2023-12-07T10:07:12;21.52;;;8.27;;
68247;SDS011;55064;49.636;12.164;2023-12-07T10:09:41;21.60;;;9.40;;
68247;SDS011;55064;49.636;12.164;2023-12-07T10:12:07;21.30;;;8.60;;
68247;SDS011;55064;49.636;12.164;2023-12-07T10:14:33;19.57;;;8.60;;
68247;SDS011;55064;49.636;12.164;2023-12-07T10:16:59;21.90;;;8.57;;
68247;SDS011;55064;49.636;12.164;2023-12-07T10:19:25;20.38;;;8.98;;
68247;SDS011;55064;49.636;12.164;2023-12-07T10:21:52;19.70;;;8.50;;
68247;SDS011;55064;49.636;12.164;2023-12-07T10:24:22;20.27;;;8.15;;
68247;SDS011;55064;49.636;12.164;2023-12-07T10:26:49;24.25;;;9.48;;
68247;SDS011;55064;49.636;12.164;2023-12-07T10:29:18;23.83;;;8.33;;
68247;SDS011;55064;49.636;12.164;2023-12-07T10:31:48;21.05;;;8.10;;
68247;SDS011;55064;49.636;12.164;2023-12-07T10:34:15;19.00;;;7.82;;
68247;SDS011;55064;49.636;12.164;2023-12-07T10:36:44;22.20;;;8.57;;
68247;SDS011;55064;49.636;12.164;2023-12-07T10:39:11;20.80;;;8.90;;
68247;SDS011;55064;49.636;12.164;2023-12-07T10:41:36;23.23;;;8.73;;
68247;SDS011;55064;49.636;12.164;2023-12-07T10:44:04;22.00;;;9.35;;
68247;SDS011;55064;49.636;12.164;2023-12-07T10:46:32;21.95;;;9.15;;
68247;SDS011;55064;49.636;12.164;2023-12-07T10:49:06;20.40;;;8.40;;
68247;SDS011;55064;49.636;12.164;2023-12-07T10:51:34;20.90;;;8.27;;
68247;SDS011;55064;49.636;12.164;2023-12-07T10:54:06;21.80;;;9.37;;
68247;SDS011;55064;49.636;12.164;2023-12-07T10:56:43;21.83;;;9.15;;
68247;SDS011;55064;49.636;12.164;2023-12-07T10:59:10;22.25;;;8.75;;
68247;SDS011;55064;49.636;12.164;2023-12-07T11:01:38;21.10;;;9.10;;
68247;SDS011;55064;49.636;12.164;2023-12-07T11:04:04;23.67;;;8.93;;
68247;SDS011;55064;49.636;12.164;2023-12-07T11:06:31;21.83;;;8.77;;
68247;SDS011;55064;49.636;12.164;2023-12-07T11:08:58;21.83;;;9.70;;
68247;SDS011;55064;49.636;12.164;2023-12-07T11:11:33;24.08;;;9.38;;
68247;SDS011;55064;49.636;12.164;2023-12-07T11:14:02;21.73;;;8.88;;
68247;SDS011;55064;49.636;12.164;2023-12-07T11:19:00;19.30;;;8.13;;
68247;SDS011;55064;49.636;12.164;2023-12-07T11:21:26;19.00;;;8.43;;
68247;SDS011;55064;49.636;12.164;2023-12-07T11:23:54;19.20;;;7.77;;
68247;SDS011;55064;49.636;12.164;2023-12-07T11:26:23;19.67;;;8.63;;
68247;SDS011;55064;49.636;12.164;2023-12-07T11:28:49;20.27;;;8.70;;
68247;SDS011;55064;49.636;12.164;2023-12-07T11:31:14;21.07;;;8.63;;
68247;SDS011;55064;49.636;12.164;2023-12-07T11:33:41;21.58;;;8.65;;
68247;SDS011;55064;49.636;12.164;2023-12-07T11:36:07;22.08;;;9.00;;
68247;SDS011;55064;49.636;12.164;2023-12-07T11:38:35;24.17;;;9.30;;
68247;SDS011;55064;49.636;12.164;2023-12-07T11:41:23;21.53;;;8.83;;
68247;SDS011;55064;49.636;12.164;2023-12-07T11:43:49;24.10;;;9.77;;
68247;SDS011;55064;49.636;12.164;2023-12-07T11:46:18;23.80;;;9.63;;
68247;SDS011;55064;49.636;12.164;2023-12-07T11:48:47;21.77;;;8.60;;
68247;SDS011;55064;49.636;12.164;2023-12-07T11:51:15;19.50;;;8.32;;
68247;SDS011;55064;49.636;12.164;2023-12-07T11:53:41;19.77;;;8.35;;
68247;SDS011;55064;49.636;12.164;2023-12-07T11:56:07;22.17;;;8.53;;
68247;SDS011;55064;49.636;12.164;2023-12-07T11:58:35;21.70;;;8.95;;
68247;SDS011;55064;49.636;12.164;2023-12-07T12:01:01;20.02;;;8.38;;
68247;SDS011;55064;49.636;12.164;2023-12-07T12:03:28;20.33;;;8.45;;
68247;SDS011;55064;49.636;12.164;2023-12-07T12:05:55;23.30;;;9.90;;
68247;SDS011;55064;49.636;12.164;2023-12-07T12:08:20;21.05;;;8.43;;
68247;SDS011;55064;49.636;12.164;2023-12-07T12:10:47;19.35;;;8.07;;
68247;SDS011;55064;49.636;12.164;2023-12-07T12:13:15;20.25;;;8.35;;
68247;SDS011;55064;49.636;12.164;2023-12-07T12:15:41;18.00;;;7.70;;
68247;SDS011;55064;49.636;12.164;2023-12-07T12:18:07;19.73;;;8.48;;
68247;SDS011;55064;49.636;12.164;2023-12-07T12:20:33;19.25;;;8.50;;
68247;SDS011;55064;49.636;12.164;2023-12-07T12:22:59;18.47;;;7.80;;
68247;SDS011;55064;49.636;12.164;2023-12-07T12:25:26;22.45;;;9.73;;
68247;SDS011;55064;49.636;12.164;2023-12-07T12:27:58;20.83;;;8.98;;
68247;SDS011;55064;49.636;12.164;2023-12-07T12:30:27;17.45;;;7.40;;
68247;SDS011;55064;49.636;12.164;2023-12-07T12:32:53;20.23;;;7.80;;
68247;SDS011;55064;49.636;12.164;2023-12-07T12:35:18;21.45;;;8.50;;
68247;SDS011;55064;49.636;12.164;2023-12-07T12:37:44;18.23;;;8.00;;
68247;SDS011;55064;49.636;12.164;2023-12-07T12:40:11;18.77;;;8.05;;
68247;SDS011;55064;49.636;12.164;2023-12-07T12:42:40;23.60;;;8.25;;
68247;SDS011;55064;49.636;12.164;2023-12-07T12:45:08;19.23;;;7.72;;
68247;SDS011;55064;49.636;12.164;2023-12-07T12:47:36;17.88;;;7.75;;
68247;SDS011;55064;49.636;12.164;2023-12-07T12:50:01;17.57;;;7.70;;
68247;SDS011;55064;49.636;12.164;2023-12-07T12:52:29;20.05;;;8.27;;
68247;SDS011;55064;49.636;12.164;2023-12-07T12:54:55;20.50;;;7.80;;
68247;SDS011;55064;49.636;12.164;2023-12-07T12:57:21;20.17;;;8.25;;
68247;SDS011;55064;49.636;12.164;2023-12-07T12:59:47;18.17;;;7.82;;
68247;SDS011;55064;49.636;12.164;2023-12-07T13:02:13;19.50;;;7.38;;
68247;SDS011;55064;49.636;12.164;2023-12-07T13:04:39;17.37;;;6.60;;
68247;SDS011;55064;49.636;12.164;2023-12-07T13:07:05;18.52;;;7.35;;
68247;SDS011;55064;49.636;12.164;2023-12-07T13:09:31;19.70;;;7.93;;
68247;SDS011;55064;49.636;12.164;2023-12-07T13:11:57;19.67;;;8.05;;
68247;SDS011;55064;49.636;12.164;2023-12-07T13:14:23;18.20;;;8.10;;
68247;SDS011;55064;49.636;12.164;2023-12-07T13:16:48;19.43;;;9.17;;
68247;SDS011;55064;49.636;12.164;2023-12-07T13:19:14;21.93;;;8.60;;
68247;SDS011;55064;49.636;12.164;2023-12-07T13:21:39;15.60;;;7.30;;
68247;SDS011;55064;49.636;12.164;2023-12-07T13:24:05;15.77;;;6.90;;
68247;SDS011;55064;49.636;12.164;2023-12-07T13:26:32;18.33;;;7.63;;
68247;SDS011;55064;49.636;12.164;2023-12-07T13:28:58;16.85;;;7.15;;
68247;SDS011;55064;49.636;12.164;2023-12-07T13:31:23;16.57;;;7.20;;
68247;SDS011;55064;49.636;12.164;2023-12-07T13:33:49;16.53;;;7.70;;
68247;SDS011;55064;49.636;12.164;2023-12-07T13:36:15;16.40;;;7.65;;
68247;SDS011;55064;49.636;12.164;2023-12-07T13:38:43;18.60;;;7.78;;
68247;SDS011;55064;49.636;12.164;2023-12-07T13:41:08;16.70;;;6.93;;
68247;SDS011;55064;49.636;12.164;2023-12-07T13:43:34;15.63;;;7.00;;
68247;SDS011;55064;49.636;12.164;2023-12-07T13:45:59;19.70;;;7.97;;
68247;SDS011;55064;49.636;12.164;2023-12-07T13:48:25;15.87;;;7.03;;
68247;SDS011;55064;49.636;12.164;2023-12-07T13:50:51;18.75;;;8.25;;
68247;SDS011;55064;49.636;12.164;2023-12-07T13:53:17;18.87;;;8.40;;
68247;SDS011;55064;49.636;12.164;2023-12-07T13:55:43;17.98;;;8.07;;
68247;SDS011;55064;49.636;12.164;2023-12-07T13:58:10;16.77;;;7.22;;
68247;SDS011;55064;49.636;12.164;2023-12-07T14:00:36;18.57;;;7.63;;
68247;SDS011;55064;49.636;12.164;2023-12-07T14:03:02;21.55;;;8.65;;
68247;SDS011;55064;49.636;12.164;2023-12-07T14:05:31;18.08;;;8.07;;
68247;SDS011;55064;49.636;12.164;2023-12-07T14:07:56;19.10;;;7.50;;
68247;SDS011;55064;49.636;12.164;2023-12-07T14:10:22;20.60;;;8.10;;
68247;SDS011;55064;49.636;12.164;2023-12-07T14:12:47;20.70;;;8.50;;
68247;SDS011;55064;49.636;12.164;2023-12-07T14:15:13;21.77;;;8.60;;